sensor_id;sensor_type;location;lat;lon;timestamp;P1;durP1;ratioP1;P2;durP2;ratioP2
12480;SDS011;6305;48.398;11.762;2024-02-14T00:00:00;33.17;;;20.80;;
12480;SDS011;6305;48.398;11.762;2024-02-14T00:02:31;28.77;;;19.63;;
12480;SDS011;6305;48.398;11.762;2024-02-14T00:04:58;28.50;;;19.50;;
12480;SDS011;6305;48.398;11.762;2024-02-14T00:07:26;28.57;;;18.87;;
12480;SDS011;6305;48.398;11.762;2024-02-14T00:09:53;27.03;;;18.20;;
12480;SDS011;6305;48.398;11.762;2024-02-14T00:12:20;28.43;;;18.93;;
12480;SDS011;6305;48.398;11.762;2024-02-14T00:14:48;25.30;;;18.30;;
12480;SDS011;6305;48.398;11.762;2024-02-14T00:17:16;29.10;;;19.43;;
12480;SDS011;6305;48.398;11.762;2024-02-14T00:19:44;30.40;;;20.53;;
12480;SDS011;6305;48.398;11.762;2024-02-14T00:22:11;32.93;;;21.40;;
12480;SDS011;6305;48.398;11.762;2024-02-14T00:24:38;30.57;;;22.00;;
12480;SDS011;6305;48.398;11.762;2024-02-14T00:27:05;32.03;;;21.73;;
12480;SDS011;6305;48.398;11.762;2024-02-14T00:29:32;34.57;;;22.10;;
12480;SDS011;6305;48.398;11.762;2024-02-14T00:32:00;34.93;;;20.53;;
12480;SDS011;6305;48.398;11.762;2024-02-14T00:34:30;30.40;;;21.63;;
12480;SDS011;6305;48.398;11.762;2024-02-14T00:36:57;28.27;;;20.00;;
12480;SDS011;6305;48.398;11.762;2024-02-14T00:39:23;30.73;;;19.70;;
12480;SDS011;6305;48.398;11.762;2024-02-14T00:41:50;26.83;;;20.10;;
12480;SDS011;6305;48.398;11.762;2024-02-14T00:44:18;30.50;;;20.10;;
12480;SDS011;6305;48.398;11.762;2024-02-14T00:46:45;32.40;;;19.67;;
12480;SDS011;6305;48.398;11.762;2024-02-14T00:49:13;35.53;;;21.93;;
12480;SDS011;6305;48.398;11.762;2024-02-14T00:51:41;38.83;;;22.23;;
12480;SDS011;6305;48.398;11.762;2024-02-14T00:54:09;31.80;;;21.83;;
12480;SDS011;6305;48.398;11.762;2024-02-14T00:56:35;34.47;;;21.60;;
12480;SDS011;6305;48.398;11.762;2024-02-14T00:59:02;36.60;;;21.17;;
12480;SDS011;6305;48.398;11.762;2024-02-14T01:01:29;35.73;;;21.77;;
12480;SDS011;6305;48.398;11.762;2024-02-14T01:03:56;34.87;;;20.17;;
12480;SDS011;6305;48.398;11.762;2024-02-14T01:06:23;32.03;;;21.03;;
12480;SDS011;6305;48.398;11.762;2024-02-14T01:08:52;34.27;;;20.90;;
12480;SDS011;6305;48.398;11.762;2024-02-14T01:11:19;36.30;;;20.40;;
12480;SDS011;6305;48.398;11.762;2024-02-14T01:13:46;33.70;;;20.00;;
12480;SDS011;6305;48.398;11.762;2024-02-14T01:16:13;31.70;;;20.27;;
12480;SDS011;6305;48.398;11.762;2024-02-14T01:18:40;33.77;;;20.90;;
12480;SDS011;6305;48.398;11.762;2024-02-14T01:21:07;30.87;;;21.37;;
12480;SDS011;6305;48.398;11.762;2024-02-14T01:23:34;36.00;;;22.47;;
12480;SDS011;6305;48.398;11.762;2024-02-14T01:26:02;34.47;;;22.43;;
12480;SDS011;6305;48.398;11.762;2024-02-14T01:28:30;32.13;;;20.57;;
12480;SDS011;6305;48.398;11.762;2024-02-14T01:30:57;34.70;;;22.70;;
12480;SDS011;6305;48.398;11.762;2024-02-14T01:33:24;35.50;;;23.17;;
12480;SDS011;6305;48.398;11.762;2024-02-14T01:35:52;38.73;;;23.53;;
12480;SDS011;6305;48.398;11.762;2024-02-14T01:38:21;39.50;;;22.60;;
12480;SDS011;6305;48.398;11.762;2024-02-14T01:40:48;34.80;;;21.63;;
12480;SDS011;6305;48.398;11.762;2024-02-14T01:43:17;34.60;;;22.20;;
12480;SDS011;6305;48.398;11.762;2024-02-14T01:45:46;38.63;;;22.23;;
12480;SDS011;6305;48.398;11.762;2024-02-14T01:48:15;32.80;;;22.53;;
12480;SDS011;6305;48.398;11.762;2024-02-14T01:50:43;35.93;;;22.00;;
12480;SDS011;6305;48.398;11.762;2024-02-14T01:53:11;34.37;;;22.80;;
12480;SDS011;6305;48.398;11.762;2024-02-14T01:55:39;34.07;;;21.87;;
12480;SDS011;6305;48.398;11.762;2024-02-14T01:58:06;31.83;;;20.43;;
12480;SDS011;6305;48.398;11.762;2024-02-14T02:00:35;34.57;;;21.27;;
12480;SDS011;6305;48.398;11.762;2024-02-14T02:03:08;32.03;;;20.53;;
12480;SDS011;6305;48.398;11.762;2024-02-14T02:05:36;35.30;;;20.80;;
12480;SDS011;6305;48.398;11.762;2024-02-14T02:08:03;32.73;;;20.63;;
12480;SDS011;6305;48.398;11.762;2024-02-14T02:10:31;34.77;;;21.07;;
12480;SDS011;6305;48.398;11.762;2024-02-14T02:13:18;33.40;;;20.17;;
12480;SDS011;6305;48.398;11.762;2024-02-14T02:16:07;28.33;;;20.00;;
12480;SDS011;6305;48.398;11.762;2024-02-14T02:18:54;31.63;;;19.80;;
12480;SDS011;6305;48.398;11.762;2024-02-14T02:21:41;30.93;;;20.27;;
12480;SDS011;6305;48.398;11.762;2024-02-14T02:24:11;33.97;;;19.83;;
12480;SDS011;6305;48.398;11.762;2024-02-14T02:26:38;28.80;;;18.57;;
12480;SDS011;6305;48.398;11.762;2024-02-14T02:29:25;31.03;;;18.57;;
12480;SDS011;6305;48.398;11.762;2024-02-14T02:31:52;28.10;;;16.30;;
12480;SDS011;6305;48.398;11.762;2024-02-14T02:34:19;28.30;;;17.13;;
12480;SDS011;6305;48.398;11.762;2024-02-14T02:36:46;25.93;;;16.07;;
12480;SDS011;6305;48.398;11.762;2024-02-14T02:39:35;25.60;;;15.73;;
12480;SDS011;6305;48.398;11.762;2024-02-14T02:42:22;24.80;;;15.63;;
12480;SDS011;6305;48.398;11.762;2024-02-14T02:45:07;26.45;;;16.15;;
12480;SDS011;6305;48.398;11.762;2024-02-14T02:47:54;25.37;;;15.13;;
12480;SDS011;6305;48.398;11.762;2024-02-14T02:50:41;24.03;;;14.83;;
12480;SDS011;6305;48.398;11.762;2024-02-14T02:53:28;31.33;;;15.77;;
12480;SDS011;6305;48.398;11.762;2024-02-14T02:56:16;28.10;;;15.07;;
12480;SDS011;6305;48.398;11.762;2024-02-14T02:58:43;26.40;;;14.97;;
12480;SDS011;6305;48.398;11.762;2024-02-14T03:01:11;24.23;;;15.03;;
12480;SDS011;6305;48.398;11.762;2024-02-14T03:03:58;27.27;;;15.18;;
12480;SDS011;6305;48.398;11.762;2024-02-14T03:06:45;26.33;;;15.47;;
12480;SDS011;6305;48.398;11.762;2024-02-14T03:09:23;26.83;;;13.97;;
12480;SDS011;6305;48.398;11.762;2024-02-14T03:12:13;26.07;;;14.67;;
12480;SDS011;6305;48.398;11.762;2024-02-14T03:15:02;23.27;;;13.60;;
12480;SDS011;6305;48.398;11.762;2024-02-14T03:17:32;22.93;;;13.63;;
12480;SDS011;6305;48.398;11.762;2024-02-14T03:19:59;26.33;;;14.20;;
12480;SDS011;6305;48.398;11.762;2024-02-14T03:22:26;25.87;;;14.30;;
12480;SDS011;6305;48.398;11.762;2024-02-14T03:24:53;26.03;;;13.07;;
12480;SDS011;6305;48.398;11.762;2024-02-14T03:27:21;26.10;;;13.70;;
12480;SDS011;6305;48.398;11.762;2024-02-14T03:29:52;23.17;;;13.60;;
12480;SDS011;6305;48.398;11.762;2024-02-14T03:32:20;27.20;;;13.05;;
12480;SDS011;6305;48.398;11.762;2024-02-14T03:34:48;21.10;;;12.57;;
12480;SDS011;6305;48.398;11.762;2024-02-14T03:37:15;24.03;;;12.87;;
12480;SDS011;6305;48.398;11.762;2024-02-14T03:39:42;20.65;;;12.52;;
12480;SDS011;6305;48.398;11.762;2024-02-14T03:42:11;22.43;;;11.87;;
12480;SDS011;6305;48.398;11.762;2024-02-14T03:44:39;20.60;;;12.73;;
12480;SDS011;6305;48.398;11.762;2024-02-14T03:47:06;23.80;;;13.57;;
12480;SDS011;6305;48.398;11.762;2024-02-14T03:49:33;23.50;;;12.80;;
12480;SDS011;6305;48.398;11.762;2024-02-14T03:52:00;21.37;;;12.00;;
12480;SDS011;6305;48.398;11.762;2024-02-14T03:54:28;25.93;;;12.47;;
12480;SDS011;6305;48.398;11.762;2024-02-14T03:56:55;21.70;;;12.60;;
12480;SDS011;6305;48.398;11.762;2024-02-14T03:59:22;26.20;;;13.87;;
12480;SDS011;6305;48.398;11.762;2024-02-14T04:01:51;21.03;;;12.83;;
12480;SDS011;6305;48.398;11.762;2024-02-14T04:04:18;22.80;;;13.63;;
12480;SDS011;6305;48.398;11.762;2024-02-14T04:06:45;26.27;;;14.33;;
12480;SDS011;6305;48.398;11.762;2024-02-14T04:09:13;25.53;;;14.27;;
12480;SDS011;6305;48.398;11.762;2024-02-14T04:11:40;24.23;;;14.13;;
12480;SDS011;6305;48.398;11.762;2024-02-14T04:14:07;22.97;;;14.07;;
12480;SDS011;6305;48.398;11.762;2024-02-14T04:16:34;22.13;;;13.37;;
12480;SDS011;6305;48.398;11.762;2024-02-14T04:19:03;24.93;;;14.83;;
12480;SDS011;6305;48.398;11.762;2024-02-14T04:21:30;23.73;;;14.20;;
12480;SDS011;6305;48.398;11.762;2024-02-14T04:23:57;24.93;;;14.13;;
12480;SDS011;6305;48.398;11.762;2024-02-14T04:26:25;22.03;;;13.90;;
12480;SDS011;6305;48.398;11.762;2024-02-14T04:28:52;24.53;;;14.20;;
12480;SDS011;6305;48.398;11.762;2024-02-14T04:31:18;26.07;;;15.03;;
12480;SDS011;6305;48.398;11.762;2024-02-14T04:33:58;27.93;;;15.23;;
12480;SDS011;6305;48.398;11.762;2024-02-14T04:36:27;26.17;;;15.93;;
12480;SDS011;6305;48.398;11.762;2024-02-14T04:38:55;30.37;;;17.33;;
12480;SDS011;6305;48.398;11.762;2024-02-14T04:41:23;28.80;;;18.07;;
12480;SDS011;6305;48.398;11.762;2024-02-14T04:43:53;30.33;;;17.80;;
12480;SDS011;6305;48.398;11.762;2024-02-14T04:46:20;32.07;;;17.87;;
12480;SDS011;6305;48.398;11.762;2024-02-14T04:48:47;28.03;;;16.60;;
12480;SDS011;6305;48.398;11.762;2024-02-14T04:51:14;31.10;;;16.93;;
12480;SDS011;6305;48.398;11.762;2024-02-14T04:53:43;26.07;;;16.57;;
12480;SDS011;6305;48.398;11.762;2024-02-14T04:56:10;28.40;;;16.57;;
12480;SDS011;6305;48.398;11.762;2024-02-14T04:58:37;25.87;;;15.87;;
12480;SDS011;6305;48.398;11.762;2024-02-14T05:01:03;27.77;;;16.47;;
12480;SDS011;6305;48.398;11.762;2024-02-14T05:03:30;24.30;;;15.63;;
12480;SDS011;6305;48.398;11.762;2024-02-14T05:05:57;28.57;;;16.63;;
12480;SDS011;6305;48.398;11.762;2024-02-14T05:08:27;27.30;;;15.43;;
12480;SDS011;6305;48.398;11.762;2024-02-14T05:10:56;31.17;;;15.33;;
12480;SDS011;6305;48.398;11.762;2024-02-14T05:13:22;30.10;;;15.53;;
12480;SDS011;6305;48.398;11.762;2024-02-14T05:15:49;25.53;;;15.47;;
12480;SDS011;6305;48.398;11.762;2024-02-14T05:18:16;22.77;;;14.73;;
12480;SDS011;6305;48.398;11.762;2024-02-14T05:20:43;23.27;;;14.40;;
12480;SDS011;6305;48.398;11.762;2024-02-14T05:23:10;28.97;;;14.40;;
12480;SDS011;6305;48.398;11.762;2024-02-14T05:25:38;25.50;;;14.73;;
12480;SDS011;6305;48.398;11.762;2024-02-14T05:28:06;26.00;;;13.90;;
12480;SDS011;6305;48.398;11.762;2024-02-14T05:30:38;24.23;;;14.90;;
12480;SDS011;6305;48.398;11.762;2024-02-14T05:33:15;21.70;;;13.77;;
12480;SDS011;6305;48.398;11.762;2024-02-14T05:35:43;26.07;;;14.97;;
12480;SDS011;6305;48.398;11.762;2024-02-14T05:38:12;21.90;;;13.97;;
12480;SDS011;6305;48.398;11.762;2024-02-14T05:40:39;23.53;;;14.00;;
12480;SDS011;6305;48.398;11.762;2024-02-14T05:43:10;25.83;;;13.77;;
12480;SDS011;6305;48.398;11.762;2024-02-14T05:45:37;22.90;;;13.93;;
12480;SDS011;6305;48.398;11.762;2024-02-14T05:48:04;21.23;;;13.13;;
12480;SDS011;6305;48.398;11.762;2024-02-14T05:50:32;23.90;;;13.23;;
12480;SDS011;6305;48.398;11.762;2024-02-14T05:52:59;19.80;;;13.07;;
12480;SDS011;6305;48.398;11.762;2024-02-14T05:55:26;23.33;;;12.33;;
12480;SDS011;6305;48.398;11.762;2024-02-14T05:57:55;21.27;;;12.15;;
12480;SDS011;6305;48.398;11.762;2024-02-14T06:00:25;19.73;;;12.43;;
12480;SDS011;6305;48.398;11.762;2024-02-14T06:02:52;21.70;;;12.90;;
12480;SDS011;6305;48.398;11.762;2024-02-14T06:05:19;23.13;;;12.40;;
12480;SDS011;6305;48.398;11.762;2024-02-14T06:07:46;19.30;;;11.67;;
12480;SDS011;6305;48.398;11.762;2024-02-14T06:10:13;19.03;;;11.70;;
12480;SDS011;6305;48.398;11.762;2024-02-14T06:12:40;18.37;;;11.27;;
12480;SDS011;6305;48.398;11.762;2024-02-14T06:15:08;19.30;;;11.90;;
12480;SDS011;6305;48.398;11.762;2024-02-14T06:17:37;18.75;;;10.30;;
12480;SDS011;6305;48.398;11.762;2024-02-14T06:20:05;16.50;;;9.73;;
12480;SDS011;6305;48.398;11.762;2024-02-14T06:22:34;16.60;;;9.75;;
12480;SDS011;6305;48.398;11.762;2024-02-14T06:25:01;19.05;;;10.75;;
12480;SDS011;6305;48.398;11.762;2024-02-14T06:27:33;15.50;;;8.55;;
12480;SDS011;6305;48.398;11.762;2024-02-14T06:30:00;11.75;;;8.38;;
12480;SDS011;6305;48.398;11.762;2024-02-14T06:32:27;12.93;;;7.95;;
12480;SDS011;6305;48.398;11.762;2024-02-14T06:34:56;14.00;;;8.05;;
12480;SDS011;6305;48.398;11.762;2024-02-14T06:37:23;14.45;;;8.65;;
12480;SDS011;6305;48.398;11.762;2024-02-14T06:39:50;12.20;;;8.60;;
12480;SDS011;6305;48.398;11.762;2024-02-14T06:42:17;12.68;;;8.52;;
12480;SDS011;6305;48.398;11.762;2024-02-14T06:44:44;11.37;;;8.00;;
12480;SDS011;6305;48.398;11.762;2024-02-14T06:47:12;12.13;;;7.55;;
12480;SDS011;6305;48.398;11.762;2024-02-14T06:49:40;14.45;;;7.95;;
12480;SDS011;6305;48.398;11.762;2024-02-14T06:52:08;14.07;;;7.70;;
12480;SDS011;6305;48.398;11.762;2024-02-14T06:54:36;9.70;;;7.05;;
12480;SDS011;6305;48.398;11.762;2024-02-14T06:57:03;10.60;;;6.47;;
12480;SDS011;6305;48.398;11.762;2024-02-14T06:59:32;12.60;;;7.35;;
12480;SDS011;6305;48.398;11.762;2024-02-14T07:01:59;9.30;;;6.65;;
12480;SDS011;6305;48.398;11.762;2024-02-14T07:04:27;9.93;;;6.38;;
12480;SDS011;6305;48.398;11.762;2024-02-14T07:06:54;9.02;;;6.75;;
12480;SDS011;6305;48.398;11.762;2024-02-14T07:09:22;8.45;;;6.35;;
12480;SDS011;6305;48.398;11.762;2024-02-14T07:11:50;9.30;;;6.50;;
12480;SDS011;6305;48.398;11.762;2024-02-14T07:14:19;9.95;;;6.03;;
12480;SDS011;6305;48.398;11.762;2024-02-14T07:16:46;9.25;;;6.28;;
12480;SDS011;6305;48.398;11.762;2024-02-14T07:19:13;11.82;;;6.97;;
12480;SDS011;6305;48.398;11.762;2024-02-14T07:21:40;12.55;;;6.28;;
12480;SDS011;6305;48.398;11.762;2024-02-14T07:24:08;10.80;;;5.70;;
12480;SDS011;6305;48.398;11.762;2024-02-14T07:26:36;8.93;;;5.85;;
12480;SDS011;6305;48.398;11.762;2024-02-14T07:29:05;9.00;;;5.80;;
12480;SDS011;6305;48.398;11.762;2024-02-14T07:31:32;8.90;;;5.85;;
12480;SDS011;6305;48.398;11.762;2024-02-14T07:33:59;5.82;;;4.55;;
12480;SDS011;6305;48.398;11.762;2024-02-14T07:36:28;7.25;;;4.38;;
12480;SDS011;6305;48.398;11.762;2024-02-14T07:38:55;6.03;;;4.28;;
12480;SDS011;6305;48.398;11.762;2024-02-14T07:41:22;5.38;;;3.75;;
12480;SDS011;6305;48.398;11.762;2024-02-14T07:43:54;5.07;;;3.65;;
12480;SDS011;6305;48.398;11.762;2024-02-14T07:46:22;3.83;;;3.20;;
12480;SDS011;6305;48.398;11.762;2024-02-14T07:48:51;6.20;;;3.53;;
12480;SDS011;6305;48.398;11.762;2024-02-14T07:51:19;6.43;;;3.28;;
12480;SDS011;6305;48.398;11.762;2024-02-14T07:53:46;4.32;;;2.83;;
12480;SDS011;6305;48.398;11.762;2024-02-14T07:56:12;4.70;;;3.30;;
12480;SDS011;6305;48.398;11.762;2024-02-14T07:58:39;4.22;;;2.60;;
12480;SDS011;6305;48.398;11.762;2024-02-14T08:01:08;4.22;;;2.33;;
12480;SDS011;6305;48.398;11.762;2024-02-14T08:03:35;2.83;;;2.40;;
12480;SDS011;6305;48.398;11.762;2024-02-14T08:06:02;6.38;;;2.72;;
12480;SDS011;6305;48.398;11.762;2024-02-14T08:08:29;4.43;;;2.63;;
12480;SDS011;6305;48.398;11.762;2024-02-14T08:10:56;4.88;;;3.30;;
12480;SDS011;6305;48.398;11.762;2024-02-14T08:13:23;3.80;;;2.70;;
12480;SDS011;6305;48.398;11.762;2024-02-14T08:15:50;4.97;;;3.55;;
12480;SDS011;6305;48.398;11.762;2024-02-14T08:18:19;5.82;;;4.55;;
12480;SDS011;6305;48.398;11.762;2024-02-14T08:20:46;4.75;;;3.30;;
12480;SDS011;6305;48.398;11.762;2024-02-14T08:23:14;5.18;;;3.55;;
12480;SDS011;6305;48.398;11.762;2024-02-14T08:25:42;5.55;;;3.60;;
12480;SDS011;6305;48.398;11.762;2024-02-14T08:28:09;6.00;;;3.60;;
12480;SDS011;6305;48.398;11.762;2024-02-14T08:30:36;6.85;;;3.53;;
12480;SDS011;6305;48.398;11.762;2024-02-14T08:33:04;6.30;;;3.42;;
12480;SDS011;6305;48.398;11.762;2024-02-14T08:35:32;6.45;;;3.72;;
12480;SDS011;6305;48.398;11.762;2024-02-14T08:37:59;9.23;;;6.15;;
12480;SDS011;6305;48.398;11.762;2024-02-14T08:40:26;7.18;;;3.65;;
12480;SDS011;6305;48.398;11.762;2024-02-14T08:42:53;6.45;;;3.65;;
12480;SDS011;6305;48.398;11.762;2024-02-14T08:45:20;6.65;;;3.75;;
12480;SDS011;6305;48.398;11.762;2024-02-14T08:47:48;7.05;;;3.40;;
12480;SDS011;6305;48.398;11.762;2024-02-14T08:50:15;9.43;;;3.42;;
12480;SDS011;6305;48.398;11.762;2024-02-14T08:52:43;5.63;;;3.55;;
12480;SDS011;6305;48.398;11.762;2024-02-14T08:55:11;4.60;;;3.20;;
12480;SDS011;6305;48.398;11.762;2024-02-14T08:57:42;5.07;;;3.55;;
12480;SDS011;6305;48.398;11.762;2024-02-14T09:00:10;7.40;;;3.00;;
12480;SDS011;6305;48.398;11.762;2024-02-14T09:02:40;5.00;;;2.95;;
12480;SDS011;6305;48.398;11.762;2024-02-14T09:05:07;4.25;;;3.13;;
12480;SDS011;6305;48.398;11.762;2024-02-14T09:07:35;3.88;;;2.45;;
12480;SDS011;6305;48.398;11.762;2024-02-14T09:10:03;4.55;;;3.22;;
12480;SDS011;6305;48.398;11.762;2024-02-14T09:12:31;5.60;;;2.80;;
12480;SDS011;6305;48.398;11.762;2024-02-14T09:14:58;6.03;;;2.92;;
12480;SDS011;6305;48.398;11.762;2024-02-14T09:17:25;4.47;;;2.25;;
12480;SDS011;6305;48.398;11.762;2024-02-14T09:19:52;4.72;;;2.67;;
12480;SDS011;6305;48.398;11.762;2024-02-14T09:22:19;4.28;;;2.25;;
12480;SDS011;6305;48.398;11.762;2024-02-14T09:24:46;4.60;;;2.20;;
12480;SDS011;6305;48.398;11.762;2024-02-14T09:27:15;4.13;;;2.40;;
12480;SDS011;6305;48.398;11.762;2024-02-14T09:29:42;4.03;;;2.72;;
12480;SDS011;6305;48.398;11.762;2024-02-14T09:32:09;7.10;;;2.50;;
12480;SDS011;6305;48.398;11.762;2024-02-14T09:34:36;3.97;;;2.50;;
12480;SDS011;6305;48.398;11.762;2024-02-14T09:37:03;3.25;;;2.45;;
12480;SDS011;6305;48.398;11.762;2024-02-14T09:39:31;5.47;;;2.42;;
12480;SDS011;6305;48.398;11.762;2024-02-14T09:42:02;4.15;;;2.28;;
12480;SDS011;6305;48.398;11.762;2024-02-14T09:44:36;3.90;;;2.42;;
12480;SDS011;6305;48.398;11.762;2024-02-14T09:47:04;3.65;;;2.30;;
12480;SDS011;6305;48.398;11.762;2024-02-14T09:49:32;4.28;;;2.30;;
12480;SDS011;6305;48.398;11.762;2024-02-14T09:52:01;3.38;;;2.28;;
12480;SDS011;6305;48.398;11.762;2024-02-14T09:54:29;3.13;;;1.85;;
12480;SDS011;6305;48.398;11.762;2024-02-14T09:56:59;4.18;;;2.00;;
12480;SDS011;6305;48.398;11.762;2024-02-14T09:59:28;4.32;;;2.38;;
12480;SDS011;6305;48.398;11.762;2024-02-14T10:01:57;4.35;;;2.60;;
12480;SDS011;6305;48.398;11.762;2024-02-14T10:04:24;4.40;;;2.03;;
12480;SDS011;6305;48.398;11.762;2024-02-14T10:06:51;3.90;;;2.35;;
12480;SDS011;6305;48.398;11.762;2024-02-14T10:09:19;5.50;;;2.40;;
12480;SDS011;6305;48.398;11.762;2024-02-14T10:11:47;3.35;;;2.25;;
12480;SDS011;6305;48.398;11.762;2024-02-14T10:14:14;3.33;;;2.30;;
12480;SDS011;6305;48.398;11.762;2024-02-14T10:16:41;3.28;;;2.08;;
12480;SDS011;6305;48.398;11.762;2024-02-14T10:19:15;2.65;;;2.08;;
12480;SDS011;6305;48.398;11.762;2024-02-14T10:21:42;3.95;;;2.05;;
12480;SDS011;6305;48.398;11.762;2024-02-14T10:24:10;4.75;;;2.08;;
12480;SDS011;6305;48.398;11.762;2024-02-14T10:26:38;3.25;;;2.05;;
12480;SDS011;6305;48.398;11.762;2024-02-14T10:29:05;6.32;;;2.58;;
12480;SDS011;6305;48.398;11.762;2024-02-14T10:31:33;4.60;;;2.45;;
12480;SDS011;6305;48.398;11.762;2024-02-14T10:34:00;3.83;;;2.40;;
12480;SDS011;6305;48.398;11.762;2024-02-14T10:36:32;4.05;;;1.90;;
12480;SDS011;6305;48.398;11.762;2024-02-14T10:39:00;3.65;;;1.95;;
12480;SDS011;6305;48.398;11.762;2024-02-14T10:41:30;2.72;;;1.90;;
12480;SDS011;6305;48.398;11.762;2024-02-14T10:44:01;2.33;;;1.63;;
12480;SDS011;6305;48.398;11.762;2024-02-14T10:46:29;2.50;;;1.80;;
12480;SDS011;6305;48.398;11.762;2024-02-14T10:49:01;5.95;;;2.50;;
12480;SDS011;6305;48.398;11.762;2024-02-14T10:51:30;3.10;;;1.67;;
12480;SDS011;6305;48.398;11.762;2024-02-14T10:54:00;2.58;;;1.60;;
12480;SDS011;6305;48.398;11.762;2024-02-14T10:56:31;2.70;;;1.98;;
12480;SDS011;6305;48.398;11.762;2024-02-14T10:58:58;1.80;;;1.58;;
12480;SDS011;6305;48.398;11.762;2024-02-14T11:01:27;4.65;;;1.70;;
12480;SDS011;6305;48.398;11.762;2024-02-14T11:03:58;2.65;;;1.52;;
12480;SDS011;6305;48.398;11.762;2024-02-14T11:06:25;2.80;;;1.33;;
12480;SDS011;6305;48.398;11.762;2024-02-14T11:09:00;2.00;;;1.27;;
12480;SDS011;6305;48.398;11.762;2024-02-14T11:11:32;2.03;;;1.02;;
12480;SDS011;6305;48.398;11.762;2024-02-14T11:13:59;1.70;;;1.40;;
12480;SDS011;6305;48.398;11.762;2024-02-14T11:16:26;1.55;;;1.23;;
12480;SDS011;6305;48.398;11.762;2024-02-14T11:18:54;2.33;;;1.40;;
12480;SDS011;6305;48.398;11.762;2024-02-14T11:21:35;2.20;;;1.40;;
12480;SDS011;6305;48.398;11.762;2024-02-14T11:24:07;1.95;;;1.38;;
12480;SDS011;6305;48.398;11.762;2024-02-14T11:26:40;1.70;;;1.20;;
12480;SDS011;6305;48.398;11.762;2024-02-14T11:29:13;2.70;;;1.05;;
12480;SDS011;6305;48.398;11.762;2024-02-14T11:31:41;3.25;;;1.48;;
12480;SDS011;6305;48.398;11.762;2024-02-14T11:34:08;2.40;;;1.30;;
12480;SDS011;6305;48.398;11.762;2024-02-14T11:36:38;1.23;;;1.00;;
12480;SDS011;6305;48.398;11.762;2024-02-14T11:39:09;2.42;;;1.40;;
12480;SDS011;6305;48.398;11.762;2024-02-14T11:41:37;1.42;;;1.20;;
12480;SDS011;6305;48.398;11.762;2024-02-14T11:44:05;1.20;;;0.90;;
12480;SDS011;6305;48.398;11.762;2024-02-14T11:46:32;1.15;;;0.88;;
12480;SDS011;6305;48.398;11.762;2024-02-14T11:49:01;1.38;;;1.10;;
12480;SDS011;6305;48.398;11.762;2024-02-14T11:51:30;1.83;;;1.10;;
12480;SDS011;6305;48.398;11.762;2024-02-14T11:53:58;2.05;;;1.10;;
12480;SDS011;6305;48.398;11.762;2024-02-14T11:56:31;2.35;;;1.20;;
12480;SDS011;6305;48.398;11.762;2024-02-14T11:58:59;2.95;;;1.10;;
12480;SDS011;6305;48.398;11.762;2024-02-14T12:01:28;1.80;;;1.10;;
12480;SDS011;6305;48.398;11.762;2024-02-14T12:03:56;2.00;;;1.25;;
12480;SDS011;6305;48.398;11.762;2024-02-14T12:06:27;1.38;;;0.90;;
12480;SDS011;6305;48.398;11.762;2024-02-14T12:08:56;1.75;;;1.15;;
12480;SDS011;6305;48.398;11.762;2024-02-14T12:11:26;1.75;;;1.10;;
12480;SDS011;6305;48.398;11.762;2024-02-14T12:13:55;2.22;;;1.00;;
12480;SDS011;6305;48.398;11.762;2024-02-14T12:16:22;2.10;;;0.88;;
12480;SDS011;6305;48.398;11.762;2024-02-14T12:18:49;1.73;;;0.98;;
12480;SDS011;6305;48.398;11.762;2024-02-14T12:21:34;2.08;;;0.85;;
12480;SDS011;6305;48.398;11.762;2024-02-14T12:24:02;1.73;;;1.00;;
12480;SDS011;6305;48.398;11.762;2024-02-14T12:26:30;1.08;;;0.90;;
12480;SDS011;6305;48.398;11.762;2024-02-14T12:29:00;1.45;;;1.00;;
12480;SDS011;6305;48.398;11.762;2024-02-14T12:31:28;0.90;;;0.82;;
12480;SDS011;6305;48.398;11.762;2024-02-14T12:33:56;2.95;;;1.00;;
12480;SDS011;6305;48.398;11.762;2024-02-14T12:36:25;3.13;;;0.80;;
12480;SDS011;6305;48.398;11.762;2024-02-14T12:38:54;1.77;;;0.80;;
12480;SDS011;6305;48.398;11.762;2024-02-14T12:41:21;1.45;;;0.90;;
12480;SDS011;6305;48.398;11.762;2024-02-14T12:43:48;1.25;;;0.70;;
12480;SDS011;6305;48.398;11.762;2024-02-14T12:46:17;1.85;;;0.90;;
12480;SDS011;6305;48.398;11.762;2024-02-14T12:48:45;3.13;;;0.70;;
12480;SDS011;6305;48.398;11.762;2024-02-14T12:51:12;1.73;;;0.80;;
12480;SDS011;6305;48.398;11.762;2024-02-14T12:53:39;1.15;;;0.70;;
12480;SDS011;6305;48.398;11.762;2024-02-14T12:56:06;1.35;;;0.70;;
12480;SDS011;6305;48.398;11.762;2024-02-14T12:58:34;1.63;;;0.98;;
12480;SDS011;6305;48.398;11.762;2024-02-14T13:01:02;0.93;;;0.77;;
12480;SDS011;6305;48.398;11.762;2024-02-14T13:03:32;1.70;;;0.80;;
12480;SDS011;6305;48.398;11.762;2024-02-14T13:06:01;2.53;;;0.70;;
12480;SDS011;6305;48.398;11.762;2024-02-14T13:08:28;1.05;;;0.70;;
12480;SDS011;6305;48.398;11.762;2024-02-14T13:10:55;0.98;;;0.80;;
12480;SDS011;6305;48.398;11.762;2024-02-14T13:13:23;1.52;;;0.82;;
12480;SDS011;6305;48.398;11.762;2024-02-14T13:15:50;1.73;;;0.70;;
12480;SDS011;6305;48.398;11.762;2024-02-14T13:18:17;1.05;;;0.80;;
12480;SDS011;6305;48.398;11.762;2024-02-14T13:20:45;2.55;;;0.70;;
12480;SDS011;6305;48.398;11.762;2024-02-14T13:23:13;1.63;;;0.90;;
12480;SDS011;6305;48.398;11.762;2024-02-14T13:25:40;1.52;;;1.00;;
12480;SDS011;6305;48.398;11.762;2024-02-14T13:28:07;1.20;;;0.90;;
12480;SDS011;6305;48.398;11.762;2024-02-14T13:30:34;1.25;;;0.80;;
12480;SDS011;6305;48.398;11.762;2024-02-14T13:33:01;1.05;;;0.80;;
12480;SDS011;6305;48.398;11.762;2024-02-14T13:35:28;1.30;;;0.77;;
12480;SDS011;6305;48.398;11.762;2024-02-14T13:37:58;1.70;;;0.73;;
12480;SDS011;6305;48.398;11.762;2024-02-14T13:40:25;2.78;;;0.90;;
12480;SDS011;6305;48.398;11.762;2024-02-14T13:42:52;0.90;;;0.70;;
12480;SDS011;6305;48.398;11.762;2024-02-14T13:45:19;2.47;;;0.70;;
12480;SDS011;6305;48.398;11.762;2024-02-14T13:47:47;2.20;;;0.88;;
12480;SDS011;6305;48.398;11.762;2024-02-14T13:50:14;0.90;;;0.73;;
12480;SDS011;6305;48.398;11.762;2024-02-14T13:52:41;0.77;;;0.70;;
12480;SDS011;6305;48.398;11.762;2024-02-14T13:55:09;0.82;;;0.80;;
12480;SDS011;6305;48.398;11.762;2024-02-14T13:57:37;1.95;;;1.00;;
12480;SDS011;6305;48.398;11.762;2024-02-14T14:00:04;1.52;;;1.10;;
12480;SDS011;6305;48.398;11.762;2024-02-14T14:02:38;1.55;;;1.10;;
12480;SDS011;6305;48.398;11.762;2024-02-14T14:05:07;1.60;;;0.85;;
12480;SDS011;6305;48.398;11.762;2024-02-14T14:07:35;1.83;;;1.08;;
12480;SDS011;6305;48.398;11.762;2024-02-14T14:10:02;2.33;;;0.95;;
12480;SDS011;6305;48.398;11.762;2024-02-14T14:12:32;1.45;;;0.90;;
12480;SDS011;6305;48.398;11.762;2024-02-14T14:14:59;3.33;;;1.00;;
12480;SDS011;6305;48.398;11.762;2024-02-14T14:17:27;4.50;;;0.80;;
12480;SDS011;6305;48.398;11.762;2024-02-14T14:19:54;1.20;;;0.95;;
12480;SDS011;6305;48.398;11.762;2024-02-14T14:22:21;0.98;;;0.88;;
12480;SDS011;6305;48.398;11.762;2024-02-14T14:24:48;1.67;;;0.80;;
12480;SDS011;6305;48.398;11.762;2024-02-14T14:27:15;3.08;;;1.00;;
12480;SDS011;6305;48.398;11.762;2024-02-14T14:29:43;3.00;;;1.10;;
12480;SDS011;6305;48.398;11.762;2024-02-14T14:32:11;2.20;;;0.95;;
12480;SDS011;6305;48.398;11.762;2024-02-14T14:34:38;2.08;;;1.05;;
12480;SDS011;6305;48.398;11.762;2024-02-14T14:37:05;1.75;;;1.05;;
12480;SDS011;6305;48.398;11.762;2024-02-14T14:39:32;1.27;;;0.75;;
12480;SDS011;6305;48.398;11.762;2024-02-14T14:41:59;1.60;;;1.00;;
12480;SDS011;6305;48.398;11.762;2024-02-14T14:44:26;1.75;;;0.80;;